Time,TemperatureF,DewpointF,PressureIn,WindDirection,WindDirectionDegrees,WindSpeedMPH,WindSpeedGustMPH,Humidity,HourlyPrecipIn,Conditions,Clouds,dailyrainin,SoftwareType,DateUTC
2013-03-26 00:19:00,43.0,29.0,29.55,East,90,1.0,2.0,60,0.00,,,0.00,TxWx,2013-03-26 04:19:00,
2013-03-26 00:27:00,43.0,29.0,29.56,ESE,112,3.0,3.0,60,0.00,,,0.00,TxWx,2013-03-26 04:27:00,
2013-03-26 00:33:00,42.0,28.0,29.56,South,180,6.0,6.0,60,0.00,,,0.00,TxWx,2013-03-26 04:33:00,
2013-03-26 00:38:00,42.0,28.0,29.56,SE,135,3.0,3.0,61,0.00,,,0.00,TxWx,2013-03-26 04:38:00,
2013-03-26 00:43:00,42.0,28.0,29.56,SE,135,4.0,5.0,61,0.00,,,0.00,TxWx,2013-03-26 04:43:00,
2013-03-26 00:49:00,42.0,29.0,29.56,East,90,5.0,5.0,61,0.00,,,0.00,TxWx,2013-03-26 04:49:00,
2013-03-26 00:59:00,42.0,29.0,29.56,SE,135,3.0,4.0,61,0.00,,,0.00,TxWx,2013-03-26 04:59:00,
2013-03-26 01:06:00,42.0,29.0,29.56,ESE,112,3.0,3.0,62,0.00,,,0.00,TxWx,2013-03-26 05:06:00,
2013-03-26 01:12:00,42.0,29.0,29.56,SE,135,1.0,2.0,62,0.00,,,0.00,TxWx,2013-03-26 05:12:00,
2013-03-26 01:18:00,42.0,29.0,29.56,SE,135,3.0,4.0,62,0.00,,,0.00,TxWx,2013-03-26 05:18:00,
2013-03-26 01:23:00,42.0,29.0,29.56,SE,135,3.0,4.0,63,0.00,,,0.00,TxWx,2013-03-26 05:23:00,
2013-03-26 01:28:00,42.0,29.0,29.56,SE,135,3.0,4.0,63,0.00,,,0.00,TxWx,2013-03-26 05:28:00,
2013-03-26 01:34:00,42.0,29.0,29.56,ESE,112,6.0,6.0,63,0.00,,,0.00,TxWx,2013-03-26 05:34:00,
2013-03-26 01:39:00,42.0,29.0,29.56,SE,135,5.0,6.0,63,0.00,,,0.00,TxWx,2013-03-26 05:39:00,
2013-03-26 01:44:00,42.0,29.0,29.56,SE,135,8.0,8.0,62,0.00,,,0.00,TxWx,2013-03-26 05:44:00,
2013-03-26 01:49:00,42.0,29.0,29.57,ESE,112,5.0,6.0,62,0.00,,,0.00,TxWx,2013-03-26 05:49:00,
2013-03-26 01:54:00,42.0,29.0,29.57,ESE,112,2.0,3.0,62,0.00,,,0.00,TxWx,2013-03-26 05:54:00,
2013-03-26 01:59:00,42.0,29.0,29.57,East,90,2.0,3.0,62,0.00,,,0.00,TxWx,2013-03-26 05:59:00,
2013-03-26 02:04:00,42.0,29.0,29.57,East,90,3.0,4.0,63,0.00,,,0.00,TxWx,2013-03-26 06:04:00,
2013-03-26 02:10:00,42.0,29.0,29.57,ESE,112,3.0,4.0,62,0.00,,,0.00,TxWx,2013-03-26 06:10:00,
2013-03-26 02:15:00,42.0,29.0,29.57,ESE,112,5.0,5.0,62,0.00,,,0.00,TxWx,2013-03-26 06:15:00,
2013-03-26 02:20:00,42.0,29.0,29.57,East,90,4.0,4.0,62,0.00,,,0.00,TxWx,2013-03-26 06:20:00,
2013-03-26 02:26:00,42.0,29.0,29.57,East,90,3.0,3.0,62,0.00,,,0.00,TxWx,2013-03-26 06:26:00,
2013-03-26 02:31:00,42.0,29.0,29.57,East,90,2.0,2.0,62,0.00,,,0.00,TxWx,2013-03-26 06:31:00,
2013-03-26 02:37:00,42.0,29.0,29.57,ESE,112,3.0,4.0,62,0.00,,,0.00,TxWx,2013-03-26 06:37:00,
2013-03-26 02:42:00,42.0,29.0,29.57,SE,135,3.0,4.0,62,0.00,,,0.00,TxWx,2013-03-26 06:42:00,
2013-03-26 02:47:00,42.0,29.0,29.57,SE,135,3.0,3.0,61,0.00,,,0.00,TxWx,2013-03-26 06:47:00,
2013-03-26 02:52:00,42.0,29.0,29.57,SE,135,5.0,5.0,61,0.00,,,0.00,TxWx,2013-03-26 06:52:00,
2013-03-26 02:58:00,42.0,29.0,29.57,SE,135,3.0,4.0,61,0.00,,,0.00,TxWx,2013-03-26 06:58:00,
2013-03-26 03:03:00,42.0,29.0,29.57,SE,135,2.0,2.0,61,0.00,,,0.00,TxWx,2013-03-26 07:03:00,
2013-03-26 03:08:00,42.0,29.0,29.57,SE,135,3.0,3.0,61,0.00,,,0.00,TxWx,2013-03-26 07:08:00,
2013-03-26 03:13:00,42.0,29.0,29.57,SE,135,2.0,2.0,61,0.00,,,0.00,TxWx,2013-03-26 07:13:00,
2013-03-26 03:18:00,42.0,29.0,29.57,ESE,112,3.0,4.0,62,0.00,,,0.00,TxWx,2013-03-26 07:18:00,
2013-03-26 03:24:00,42.0,29.0,29.57,SE,135,1.0,2.0,61,0.00,,,0.00,TxWx,2013-03-26 07:24:00,
2013-03-26 03:29:00,42.0,29.0,29.57,South,180,2.0,2.0,62,0.00,,,0.00,TxWx,2013-03-26 07:29:00,
2013-03-26 03:34:00,42.0,29.0,29.57,ESE,112,3.0,3.0,62,0.00,,,0.00,TxWx,2013-03-26 07:34:00,
2013-03-26 03:40:00,42.0,29.0,29.57,SE,135,5.0,5.0,63,0.00,,,0.00,TxWx,2013-03-26 07:40:00,
2013-03-26 03:45:00,42.0,29.0,29.57,SE,135,4.0,5.0,63,0.00,,,0.00,TxWx,2013-03-26 07:45:00,
2013-03-26 03:50:00,42.0,29.0,29.57,SE,135,3.0,4.0,63,0.00,,,0.00,TxWx,2013-03-26 07:50:00,
2013-03-26 03:55:00,42.0,29.0,29.58,SSE,157,4.0,5.0,63,0.00,,,0.00,TxWx,2013-03-26 07:55:00,
2013-03-26 04:00:00,42.0,29.0,29.58,SE,135,4.0,5.0,63,0.00,,,0.00,TxWx,2013-03-26 08:00:00,
2013-03-26 04:06:00,42.0,29.0,29.58,SSE,157,3.0,3.0,63,0.00,,,0.00,TxWx,2013-03-26 08:06:00,
2013-03-26 04:11:00,42.0,29.0,29.58,East,90,2.0,4.0,63,0.00,,,0.00,TxWx,2013-03-26 08:11:00,
2013-03-26 04:16:00,42.0,29.0,29.58,South,180,3.0,4.0,63,0.00,,,0.00,TxWx,2013-03-26 08:16:00,
2013-03-26 04:21:00,42.0,29.0,29.58,South,180,6.0,6.0,63,0.00,,,0.00,TxWx,2013-03-26 08:21:00,
2013-03-26 04:26:00,42.0,29.0,29.58,SSE,157,3.0,3.0,63,0.00,,,0.00,TxWx,2013-03-26 08:26:00,
2013-03-26 04:32:00,42.0,29.0,29.58,SE,135,3.0,5.0,63,0.00,,,0.00,TxWx,2013-03-26 08:32:00,
2013-03-26 04:37:00,42.0,29.0,29.58,South,180,3.0,3.0,64,0.00,,,0.00,TxWx,2013-03-26 08:37:00,
2013-03-26 04:43:00,42.0,29.0,29.58,SSE,157,1.0,2.0,64,0.00,,,0.00,TxWx,2013-03-26 08:43:00,
2013-03-26 04:48:00,42.0,29.0,29.59,ESE,112,2.0,3.0,64,0.00,,,0.00,TxWx,2013-03-26 08:48:00,
2013-03-26 04:53:00,42.0,29.0,29.59,SSE,157,2.0,4.0,64,0.00,,,0.00,TxWx,2013-03-26 08:53:00,
2013-03-26 04:59:00,42.0,29.0,29.59,SE,135,3.0,4.0,64,0.00,,,0.00,TxWx,2013-03-26 08:59:00,
2013-03-26 05:04:00,42.0,29.0,29.59,SE,135,1.0,1.0,64,0.00,,,0.00,TxWx,2013-03-26 09:04:00,
2013-03-26 05:09:00,42.0,29.0,29.59,SE,135,1.0,1.0,64,0.00,,,0.00,TxWx,2013-03-26 09:09:00,
2013-03-26 05:14:00,42.0,29.0,29.59,SSE,157,3.0,3.0,64,0.00,,,0.00,TxWx,2013-03-26 09:14:00,
2013-03-26 05:19:00,42.0,30.0,29.59,SSE,157,3.0,3.0,64,0.00,,,0.00,TxWx,2013-03-26 09:19:00,
2013-03-26 05:24:00,42.0,30.0,29.60,SSE,157,2.0,3.0,64,0.00,,,0.00,TxWx,2013-03-26 09:24:00,
2013-03-26 05:30:00,42.0,30.0,29.60,SSE,157,3.0,3.0,64,0.00,,,0.00,TxWx,2013-03-26 09:30:00,
2013-03-26 05:35:00,42.0,30.0,29.60,SE,135,1.0,1.0,64,0.00,,,0.00,TxWx,2013-03-26 09:35:00,
2013-03-26 05:40:00,42.0,30.0,29.60,SE,135,3.0,4.0,64,0.00,,,0.00,TxWx,2013-03-26 09:40:00,
2013-03-26 05:45:00,42.0,30.0,29.60,SE,135,1.0,1.0,64,0.00,,,0.00,TxWx,2013-03-26 09:45:00,
2013-03-26 05:50:00,42.0,30.0,29.60,SE,135,1.0,3.0,64,0.00,,,0.00,TxWx,2013-03-26 09:50:00,
2013-03-26 05:56:00,42.0,30.0,29.60,ESE,112,1.0,1.0,64,0.00,,,0.00,TxWx,2013-03-26 09:56:00,
2013-03-26 06:01:00,42.0,29.0,29.61,South,180,2.0,2.0,64,0.00,,,0.00,TxWx,2013-03-26 10:01:00,
2013-03-26 06:06:00,42.0,29.0,29.60,SW,225,1.0,2.0,64,0.00,,,0.00,TxWx,2013-03-26 10:06:00,
2013-03-26 06:11:00,42.0,30.0,29.61,WSW,247,1.0,2.0,64,0.00,,,0.00,TxWx,2013-03-26 10:11:00,
2013-03-26 06:16:00,42.0,30.0,29.61,SE,135,2.0,2.0,64,0.00,,,0.00,TxWx,2013-03-26 10:16:00,
2013-03-26 06:22:00,41.0,29.0,29.61,South,180,1.0,1.0,66,0.00,,,0.00,TxWx,2013-03-26 10:22:00,
2013-03-26 06:27:00,41.0,30.0,29.61,ENE,67,1.0,1.0,66,0.00,,,0.00,TxWx,2013-03-26 10:27:00,
2013-03-26 06:32:00,40.0,29.0,29.61,NE,45,1.0,1.0,67,0.00,,,0.00,TxWx,2013-03-26 10:32:00,
2013-03-26 06:37:00,40.0,29.0,29.61,WNW,292,1.0,1.0,67,0.00,,,0.00,TxWx,2013-03-26 10:37:00,
2013-03-26 06:42:00,40.0,29.0,29.61,WNW,292,1.0,1.0,68,0.00,,,0.00,TxWx,2013-03-26 10:42:00,
2013-03-26 06:48:00,40.0,29.0,29.61,WNW,292,0.0,1.0,68,0.00,,,0.00,TxWx,2013-03-26 10:48:00,
2013-03-26 06:53:00,40.0,29.0,29.62,NE,45,2.0,2.0,68,0.00,,,0.00,TxWx,2013-03-26 10:53:00,
2013-03-26 06:58:00,40.0,29.0,29.62,NNE,22,2.0,2.0,68,0.00,,,0.00,TxWx,2013-03-26 10:58:00,
2013-03-26 07:03:00,40.0,29.0,29.63,North,0,1.0,1.0,68,0.00,,,0.00,TxWx,2013-03-26 11:03:00,
2013-03-26 07:09:00,40.0,29.0,29.63,NNW,337,0.0,1.0,69,0.00,,,0.00,TxWx,2013-03-26 11:09:00,
2013-03-26 07:14:00,40.0,29.0,29.63,South,180,1.0,1.0,69,0.00,,,0.00,TxWx,2013-03-26 11:14:00,
2013-03-26 07:19:00,40.0,30.0,29.64,South,180,1.0,1.0,69,0.00,,,0.00,TxWx,2013-03-26 11:19:00,
2013-03-26 07:24:00,40.0,30.0,29.64,South,180,0.0,1.0,70,0.00,,,0.00,TxWx,2013-03-26 11:24:00,
2013-03-26 07:29:00,40.0,30.0,29.64,SSE,157,1.0,1.0,70,0.00,,,0.00,TxWx,2013-03-26 11:29:00,
2013-03-26 07:34:00,40.0,30.0,29.64,SSW,202,1.0,2.0,70,0.00,,,0.00,TxWx,2013-03-26 11:34:00,
2013-03-26 07:39:00,40.0,30.0,29.64,SSE,157,3.0,3.0,71,0.00,,,0.00,TxWx,2013-03-26 11:39:00,
2013-03-26 07:45:00,41.0,31.0,29.65,SSE,157,3.0,3.0,70,0.00,,,0.00,TxWx,2013-03-26 11:45:00,
2013-03-26 07:50:00,41.0,30.0,29.65,SSE,157,4.0,5.0,69,0.00,,,0.00,TxWx,2013-03-26 11:50:00,
2013-03-26 07:55:00,41.0,30.0,29.65,SSE,157,3.0,5.0,69,0.00,,,0.00,TxWx,2013-03-26 11:55:00,
2013-03-26 08:01:00,41.0,31.0,29.66,South,180,5.0,5.0,69,0.00,,,0.00,TxWx,2013-03-26 12:01:00,
2013-03-26 08:06:00,40.0,30.0,29.66,South,180,2.0,3.0,70,0.00,,,0.00,TxWx,2013-03-26 12:06:00,
2013-03-26 08:11:00,40.0,30.0,29.66,ESE,112,1.0,2.0,70,0.00,,,0.00,TxWx,2013-03-26 12:11:00,
2013-03-26 08:16:00,41.0,31.0,29.66,SSE,157,3.0,3.0,70,0.00,,,0.00,TxWx,2013-03-26 12:16:00,
2013-03-26 08:22:00,41.0,31.0,29.66,SSE,157,4.0,5.0,69,0.00,,,0.00,TxWx,2013-03-26 12:22:00,
2013-03-26 08:27:00,41.0,31.0,29.66,South,180,5.0,5.0,69,0.00,,,0.00,TxWx,2013-03-26 12:27:00,
2013-03-26 08:33:00,41.0,30.0,29.67,SSE,157,6.0,6.0,69,0.00,,,0.00,TxWx,2013-03-26 12:33:00,
2013-03-26 08:38:00,41.0,30.0,29.67,SSE,157,5.0,5.0,68,0.00,,,0.00,TxWx,2013-03-26 12:38:00,
2013-03-26 08:43:00,41.0,30.0,29.67,South,180,5.0,5.0,68,0.00,,,0.00,TxWx,2013-03-26 12:43:00,
2013-03-26 08:48:00,41.0,30.0,29.67,SE,135,5.0,6.0,68,0.00,,,0.00,TxWx,2013-03-26 12:48:00,
2013-03-26 08:53:00,41.0,30.0,29.67,SSE,157,4.0,6.0,68,0.00,,,0.00,TxWx,2013-03-26 12:53:00,
2013-03-26 08:58:00,41.0,30.0,29.67,SSW,202,5.0,6.0,68,0.00,,,0.00,TxWx,2013-03-26 12:58:00,
2013-03-26 09:04:00,41.0,30.0,29.67,SSE,157,5.0,8.0,69,0.00,,,0.00,TxWx,2013-03-26 13:04:00,
2013-03-26 09:09:00,41.0,31.0,29.68,SE,135,4.0,5.0,69,0.00,,,0.00,TxWx,2013-03-26 13:09:00,
2013-03-26 09:14:00,41.0,31.0,29.68,South,180,8.0,10.0,70,0.00,,,0.00,TxWx,2013-03-26 13:14:00,
2013-03-26 09:19:00,41.0,31.0,29.68,SSE,157,12.0,12.0,70,0.00,,,0.00,TxWx,2013-03-26 13:19:00,
2013-03-26 09:25:00,42.0,33.0,29.68,SE,135,6.0,10.0,70,0.00,,,0.00,TxWx,2013-03-26 13:25:00,
2013-03-26 09:30:00,42.0,33.0,29.68,SSW,202,7.0,10.0,69,0.00,,,0.00,TxWx,2013-03-26 13:30:00,
2013-03-26 09:35:00,42.0,32.0,29.68,South,180,6.0,8.0,69,0.00,,,0.00,TxWx,2013-03-26 13:35:00,
2013-03-26 09:40:00,42.0,32.0,29.68,ESE,112,8.0,9.0,68,0.00,,,0.00,TxWx,2013-03-26 13:40:00,
2013-03-26 09:46:00,42.0,32.0,29.68,ESE,112,8.0,8.0,68,0.00,,,0.00,TxWx,2013-03-26 13:46:00,
2013-03-26 09:51:00,43.0,33.0,29.69,South,180,8.0,8.0,67,0.00,,,0.00,TxWx,2013-03-26 13:51:00,
2013-03-26 09:56:00,43.0,33.0,29.68,SSE,157,6.0,8.0,67,0.00,,,0.00,TxWx,2013-03-26 13:56:00,
2013-03-26 10:01:00,43.0,33.0,29.69,South,180,6.0,8.0,67,0.00,,,0.00,TxWx,2013-03-26 14:01:00,
2013-03-26 10:06:00,43.0,33.0,29.69,South,180,4.0,6.0,67,0.00,,,0.00,TxWx,2013-03-26 14:06:00,
2013-03-26 10:11:00,43.0,33.0,29.69,SE,135,4.0,5.0,67,0.00,,,0.00,TxWx,2013-03-26 14:11:00,
2013-03-26 10:17:00,43.0,32.0,29.69,SSE,157,6.0,7.0,66,0.00,,,0.00,TxWx,2013-03-26 14:17:00,
2013-03-26 10:22:00,43.0,32.0,29.69,South,180,5.0,6.0,66,0.00,,,0.00,TxWx,2013-03-26 14:22:00,
2013-03-26 10:27:00,43.0,32.0,29.69,SSE,157,6.0,9.0,65,0.00,,,0.00,TxWx,2013-03-26 14:27:00,
2013-03-26 10:32:00,43.0,31.0,29.69,South,180,5.0,7.0,64,0.00,,,0.00,TxWx,2013-03-26 14:32:00,
2013-03-26 10:37:00,43.0,30.0,29.70,South,180,8.0,11.0,64,0.00,,,0.00,TxWx,2013-03-26 14:37:00,
2013-03-26 10:42:00,43.0,30.0,29.69,SE,135,8.0,8.0,63,0.00,,,0.00,TxWx,2013-03-26 14:42:00,
2013-03-26 10:48:00,44.0,31.0,29.69,South,180,7.0,8.0,63,0.00,,,0.00,TxWx,2013-03-26 14:48:00,
2013-03-26 10:53:00,44.0,31.0,29.69,ESE,112,7.0,8.0,62,0.00,,,0.00,TxWx,2013-03-26 14:53:00,
2013-03-26 10:58:00,44.0,30.0,29.69,SE,135,14.0,14.0,61,0.00,,,0.00,TxWx,2013-03-26 14:58:00,
2013-03-26 11:03:00,44.0,30.0,29.70,SE,135,10.0,11.0,60,0.00,,,0.00,TxWx,2013-03-26 15:03:00,
2013-03-26 11:09:00,44.0,30.0,29.70,SSE,157,7.0,8.0,60,0.00,,,0.00,TxWx,2013-03-26 15:09:00,
2013-03-26 11:14:00,44.0,30.0,29.70,SE,135,5.0,8.0,60,0.00,,,0.00,TxWx,2013-03-26 15:14:00,
2013-03-26 11:19:00,44.0,30.0,29.70,ESE,112,5.0,6.0,60,0.00,,,0.00,TxWx,2013-03-26 15:19:00,
2013-03-26 11:24:00,44.0,30.0,29.70,ESE,112,5.0,7.0,60,0.00,,,0.00,TxWx,2013-03-26 15:24:00,
2013-03-26 11:29:00,44.0,30.0,29.70,ESE,112,7.0,7.0,61,0.00,,,0.00,TxWx,2013-03-26 15:29:00,
2013-03-26 11:34:00,44.0,31.0,29.70,South,180,3.0,4.0,62,0.00,,,0.00,TxWx,2013-03-26 15:34:00,
2013-03-26 11:39:00,44.0,30.0,29.70,SSE,157,5.0,5.0,61,0.00,,,0.00,TxWx,2013-03-26 15:39:00,
2013-03-26 11:45:00,45.0,32.0,29.70,East,90,2.0,3.0,61,0.00,,,0.00,TxWx,2013-03-26 15:45:00,
2013-03-26 11:50:00,45.0,31.0,29.70,ESE,112,3.0,5.0,60,0.00,,,0.00,TxWx,2013-03-26 15:50:00,
2013-03-26 11:55:00,45.0,31.0,29.70,East,90,6.0,6.0,59,0.00,,,0.00,TxWx,2013-03-26 15:55:00,
2013-03-26 12:01:00,45.0,31.0,29.70,South,180,6.0,6.0,59,0.00,,,0.00,TxWx,2013-03-26 16:01:00,
2013-03-26 12:06:00,45.0,30.0,29.70,SSW,202,3.0,4.0,58,0.00,,,0.00,TxWx,2013-03-26 16:06:00,
2013-03-26 12:11:00,45.0,30.0,29.70,East,90,5.0,5.0,57,0.00,,,0.00,TxWx,2013-03-26 16:11:00,
2013-03-26 12:16:00,46.0,30.0,29.70,ENE,67,6.0,6.0,57,0.00,,,0.00,TxWx,2013-03-26 16:16:00,
2013-03-26 12:22:00,46.0,30.0,29.70,ESE,112,6.0,7.0,56,0.00,,,0.00,TxWx,2013-03-26 16:22:00,
2013-03-26 12:27:00,46.0,30.0,29.70,SW,225,4.0,5.0,56,0.00,,,0.00,TxWx,2013-03-26 16:27:00,
2013-03-26 12:32:00,46.0,29.0,29.70,South,180,5.0,7.0,54,0.00,,,0.00,TxWx,2013-03-26 16:32:00,
2013-03-26 12:38:00,46.0,29.0,29.70,SSE,157,5.0,6.0,54,0.00,,,0.00,TxWx,2013-03-26 16:38:00,
2013-03-26 12:43:00,46.0,29.0,29.70,SSW,202,4.0,4.0,53,0.00,,,0.00,TxWx,2013-03-26 16:43:00,
2013-03-26 12:48:00,46.0,29.0,29.70,SSE,157,4.0,4.0,53,0.00,,,0.00,TxWx,2013-03-26 16:48:00,
2013-03-26 12:54:00,46.0,28.0,29.70,South,180,4.0,5.0,52,0.00,,,0.00,TxWx,2013-03-26 16:54:00,
2013-03-26 12:59:00,47.0,29.0,29.70,South,180,7.0,7.0,52,0.00,,,0.00,TxWx,2013-03-26 16:59:00,
2013-03-26 13:04:00,46.0,28.0,29.70,South,180,11.0,12.0,52,0.00,,,0.00,TxWx,2013-03-26 17:04:00,
2013-03-26 13:09:00,46.0,28.0,29.69,South,180,6.0,7.0,51,0.00,,,0.00,TxWx,2013-03-26 17:09:00,
2013-03-26 13:15:00,46.0,28.0,29.69,SSW,202,6.0,6.0,51,0.00,,,0.00,TxWx,2013-03-26 17:15:00,
2013-03-26 13:20:00,47.0,28.0,29.69,SSE,157,6.0,8.0,50,0.00,,,0.00,TxWx,2013-03-26 17:20:00,
2013-03-26 13:25:00,47.0,28.0,29.70,South,180,11.0,13.0,50,0.00,,,0.00,TxWx,2013-03-26 17:25:00,
2013-03-26 13:30:00,47.0,28.0,29.70,ESE,112,8.0,9.0,50,0.00,,,0.00,TxWx,2013-03-26 17:30:00,
2013-03-26 13:35:00,47.0,28.0,29.70,ESE,112,5.0,6.0,49,0.00,,,0.00,TxWx,2013-03-26 17:35:00,
2013-03-26 13:40:00,48.0,29.0,29.69,SE,135,10.0,10.0,49,0.00,,,0.00,TxWx,2013-03-26 17:40:00,
2013-03-26 13:46:00,48.0,28.0,29.69,SSE,157,13.0,13.0,47,0.00,,,0.00,TxWx,2013-03-26 17:46:00,
2013-03-26 13:51:00,48.0,28.0,29.69,South,180,5.0,6.0,47,0.00,,,0.00,TxWx,2013-03-26 17:51:00,
2013-03-26 13:56:00,48.0,28.0,29.69,South,180,6.0,8.0,48,0.00,,,0.00,TxWx,2013-03-26 17:56:00,
2013-03-26 14:00:00,40.0,22.0,29.79,South,180,2.0,3.0,51,0.00,,,0.00,TxWx,2013-03-26 18:00:00,
2013-03-26 14:01:00,48.0,28.0,29.69,SE,135,5.0,6.0,48,0.00,,,0.00,TxWx,2013-03-26 18:01:00,
2013-03-26 14:02:00,40.0,22.0,29.79,South,180,2.0,3.0,51,0.00,,,0.00,TxWx,2013-03-26 18:02:00,
2013-03-26 14:03:00,40.0,22.0,29.79,South,180,2.0,3.0,51,0.00,,,0.00,TxWx,2013-03-26 18:03:00,
2013-03-26 14:04:00,40.0,22.0,29.79,South,180,3.0,3.0,51,0.00,,,0.00,TxWx,2013-03-26 18:04:00,
2013-03-26 14:05:00,40.0,22.0,29.80,South,180,2.0,3.0,51,0.00,,,0.00,TxWx,2013-03-26 18:05:00,
2013-03-26 14:06:00,40.0,22.0,29.80,South,180,2.0,3.0,51,0.00,,,0.00,TxWx,2013-03-26 18:06:00,
2013-03-26 14:07:00,49.0,29.0,29.69,SSE,157,4.0,6.0,48,0.00,,,0.00,TxWx,2013-03-26 18:07:00,
2013-03-26 14:08:00,40.0,22.0,29.79,SSW,202,2.0,3.0,51,0.00,,,0.00,TxWx,2013-03-26 18:08:00,
2013-03-26 14:09:00,40.0,22.0,29.79,SSW,202,2.0,3.0,51,0.00,,,0.00,TxWx,2013-03-26 18:09:00,
2013-03-26 14:10:00,40.0,22.0,29.80,SSW,202,1.0,2.0,51,0.00,,,0.00,TxWx,2013-03-26 18:10:00,
2013-03-26 14:11:00,40.0,22.0,29.80,SSW,202,2.0,2.0,51,0.00,,,0.00,TxWx,2013-03-26 18:11:00,
2013-03-26 14:12:00,49.0,28.0,29.69,SE,135,5.0,7.0,45,0.00,,,0.00,TxWx,2013-03-26 18:12:00,
2013-03-26 14:13:00,40.0,22.0,29.80,SSW,202,0.0,0.0,51,0.00,,,0.00,TxWx,2013-03-26 18:13:00,
2013-03-26 14:14:00,40.0,22.0,29.80,SSW,202,0.0,0.0,51,0.00,,,0.00,TxWx,2013-03-26 18:14:00,
2013-03-26 14:15:00,40.0,22.0,29.80,South,180,0.0,1.0,51,0.00,,,0.00,TxWx,2013-03-26 18:15:00,
2013-03-26 14:16:00,40.0,22.0,29.80,South,180,2.0,3.0,51,0.00,,,0.00,TxWx,2013-03-26 18:16:00,
2013-03-26 14:17:00,48.0,26.0,29.69,ESE,112,9.0,10.0,44,0.00,,,0.00,TxWx,2013-03-26 18:17:00,
2013-03-26 14:18:00,40.0,22.0,29.80,SSW,202,3.0,3.0,51,0.00,,,0.00,TxWx,2013-03-26 18:18:00,
2013-03-26 14:19:00,40.0,22.0,29.80,SSW,202,1.0,3.0,51,0.00,,,0.00,TxWx,2013-03-26 18:19:00,
2013-03-26 14:20:00,40.0,22.0,29.80,SW,225,1.0,1.0,51,0.00,,,0.00,TxWx,2013-03-26 18:20:00,
2013-03-26 14:21:00,40.0,22.0,29.80,South,180,1.0,1.0,51,0.00,,,0.00,TxWx,2013-03-26 18:21:00,
2013-03-26 14:22:00,40.0,22.0,29.80,NNW,337,0.0,1.0,51,0.00,,,0.00,TxWx,2013-03-26 18:22:00,
2013-03-26 14:23:00,49.0,27.0,29.69,WSW,247,5.0,8.0,44,0.00,,,0.00,TxWx,2013-03-26 18:23:00,
2013-03-26 14:24:00,40.0,22.0,29.80,SE,135,0.0,0.0,51,0.00,,,0.00,TxWx,2013-03-26 18:24:00,
2013-03-26 14:25:00,39.0,21.0,29.80,WSW,247,2.0,2.0,51,0.00,,,0.00,TxWx,2013-03-26 18:25:00,
2013-03-26 14:26:00,39.0,21.0,29.80,SW,225,1.0,3.0,51,0.00,,,0.00,TxWx,2013-03-26 18:26:00,
2013-03-26 14:27:00,39.0,22.0,29.80,SSE,157,3.0,3.0,52,0.00,,,0.00,TxWx,2013-03-26 18:27:00,
2013-03-26 14:28:00,49.0,26.0,29.69,ESE,112,7.0,8.0,43,0.00,,,0.00,TxWx,2013-03-26 18:28:00,
2013-03-26 14:29:00,39.0,22.0,29.80,East,90,2.0,2.0,53,0.00,,,0.00,TxWx,2013-03-26 18:29:00,
2013-03-26 14:30:00,39.0,22.0,29.80,South,180,1.0,1.0,53,0.00,,,0.00,TxWx,2013-03-26 18:30:00,
2013-03-26 14:31:00,38.0,22.0,29.80,SSE,157,1.0,1.0,54,0.00,,,0.00,TxWx,2013-03-26 18:31:00,
2013-03-26 14:32:00,38.0,22.0,29.80,SW,225,2.0,2.0,54,0.00,,,0.00,TxWx,2013-03-26 18:32:00,
2013-03-26 14:33:00,49.0,26.0,29.69,ENE,67,5.0,11.0,42,0.00,,,0.00,TxWx,2013-03-26 18:33:00,
2013-03-26 14:34:00,38.0,22.0,29.80,ESE,112,1.0,1.0,54,0.00,,,0.00,TxWx,2013-03-26 18:34:00,
2013-03-26 14:35:00,38.0,22.0,29.80,SSE,157,1.0,1.0,54,0.00,,,0.00,TxWx,2013-03-26 18:35:00,
2013-03-26 14:36:00,38.0,22.0,29.80,South,180,1.0,2.0,55,0.00,,,0.00,TxWx,2013-03-26 18:36:00,
2013-03-26 14:37:00,38.0,22.0,29.80,SSW,202,1.0,2.0,55,0.00,,,0.00,TxWx,2013-03-26 18:37:00,
2013-03-26 14:38:00,49.0,26.0,29.69,ESE,112,10.0,14.0,42,0.00,,,0.00,TxWx,2013-03-26 18:38:00,
2013-03-26 14:39:00,38.0,22.0,29.80,SSW,202,1.0,1.0,55,0.00,,,0.00,TxWx,2013-03-26 18:39:00,
2013-03-26 14:44:00,49.0,26.0,29.69,SE,135,7.0,10.0,42,0.00,,,0.00,TxWx,2013-03-26 18:44:00,
2013-03-26 14:49:00,49.0,26.0,29.69,SE,135,9.0,10.0,42,0.00,,,0.00,TxWx,2013-03-26 18:49:00,
2013-03-26 14:54:00,49.0,26.0,29.69,ESE,112,7.0,9.0,42,0.00,,,0.00,TxWx,2013-03-26 18:54:00,
2013-03-26 14:59:00,49.0,26.0,29.69,South,180,5.0,6.0,42,0.00,,,0.00,TxWx,2013-03-26 18:59:00,
2013-03-26 15:01:00,38.0,22.0,29.80,SSW,202,1.0,1.0,54,0.00,,,0.00,TxWx,2013-03-26 19:01:00,
2013-03-26 15:02:00,38.0,22.0,29.80,WSW,247,1.0,1.0,55,0.00,,,0.00,TxWx,2013-03-26 19:02:00,
2013-03-26 15:03:00,38.0,22.0,29.80,South,180,1.0,1.0,55,0.00,,,0.00,TxWx,2013-03-26 19:03:00,
2013-03-26 15:04:00,49.0,26.0,29.69,ESE,112,4.0,6.0,42,0.00,,,0.00,TxWx,2013-03-26 19:04:00,
2013-03-26 15:06:00,38.0,22.0,29.80,SSE,157,1.0,1.0,55,0.00,,,0.00,TxWx,2013-03-26 19:06:00,
2013-03-26 15:09:00,50.0,26.0,29.69,SE,135,5.0,5.0,41,0.00,,,0.00,TxWx,2013-03-26 19:09:00,
2013-03-26 15:14:00,49.0,25.0,29.69,ESE,112,6.0,7.0,41,0.00,,,0.00,TxWx,2013-03-26 19:14:00,
2013-03-26 15:20:00,49.0,25.0,29.69,SE,135,7.0,7.0,41,0.00,,,0.00,TxWx,2013-03-26 19:20:00,
2013-03-26 15:25:00,49.0,25.0,29.69,SE,135,12.0,14.0,40,0.00,,,0.00,TxWx,2013-03-26 19:25:00,
2013-03-26 15:30:00,50.0,25.0,29.69,SE,135,7.0,7.0,40,0.00,,,0.00,TxWx,2013-03-26 19:30:00,
2013-03-26 15:35:00,50.0,24.0,29.69,SSE,157,11.0,11.0,38,0.00,,,0.00,TxWx,2013-03-26 19:35:00,
2013-03-26 15:40:00,50.0,24.0,29.69,ESE,112,6.0,8.0,38,0.00,,,0.00,TxWx,2013-03-26 19:40:00,
2013-03-26 15:45:00,50.0,25.0,29.69,SSE,157,8.0,14.0,39,0.00,,,0.00,TxWx,2013-03-26 19:45:00,
2013-03-26 15:51:00,49.0,24.0,29.69,South,180,10.0,11.0,39,0.00,,,0.00,TxWx,2013-03-26 19:51:00,
2013-03-26 15:56:00,49.0,24.0,29.69,SE,135,5.0,8.0,39,0.00,,,0.00,TxWx,2013-03-26 19:56:00,
2013-03-26 16:01:00,50.0,25.0,29.69,SE,135,6.0,11.0,39,0.00,,,0.00,TxWx,2013-03-26 20:01:00,
2013-03-26 16:07:00,49.0,24.0,29.69,SSE,157,11.0,13.0,39,0.00,,,0.00,TxWx,2013-03-26 20:07:00,
2013-03-26 16:12:00,49.0,24.0,29.69,WSW,247,8.0,8.0,39,0.00,,,0.00,TxWx,2013-03-26 20:12:00,
2013-03-26 16:17:00,49.0,24.0,29.70,SSE,157,8.0,11.0,39,0.00,,,0.00,TxWx,2013-03-26 20:17:00,
2013-03-26 16:22:00,49.0,24.0,29.70,SSW,202,6.0,10.0,40,0.00,,,0.00,TxWx,2013-03-26 20:22:00,
2013-03-26 16:27:00,49.0,24.0,29.70,South,180,6.0,6.0,40,0.00,,,0.00,TxWx,2013-03-26 20:27:00,
2013-03-26 16:33:00,49.0,24.0,29.70,SE,135,4.0,6.0,40,0.00,,,0.00,TxWx,2013-03-26 20:33:00,
2013-03-26 16:38:00,49.0,25.0,29.70,ESE,112,5.0,5.0,40,0.00,,,0.00,TxWx,2013-03-26 20:38:00,
2013-03-26 16:43:00,49.0,25.0,29.71,SE,135,7.0,8.0,41,0.00,,,0.00,TxWx,2013-03-26 20:43:00,
2013-03-26 16:48:00,48.0,24.0,29.71,ESE,112,6.0,6.0,41,0.00,,,0.00,TxWx,2013-03-26 20:48:00,
2013-03-26 16:53:00,49.0,26.0,29.71,SSE,157,3.0,4.0,42,0.00,,,0.00,TxWx,2013-03-26 20:53:00,
2013-03-26 16:59:00,49.0,25.0,29.71,SSE,157,5.0,6.0,41,0.00,,,0.00,TxWx,2013-03-26 20:59:00,
2013-03-26 17:04:00,49.0,25.0,29.71,SSE,157,6.0,8.0,41,0.00,,,0.00,TxWx,2013-03-26 21:04:00,
2013-03-26 17:09:00,48.0,24.0,29.71,ESE,112,6.0,6.0,41,0.00,,,0.00,TxWx,2013-03-26 21:09:00,
2013-03-26 17:14:00,48.0,24.0,29.71,SSE,157,5.0,6.0,41,0.00,,,0.00,TxWx,2013-03-26 21:14:00,
2013-03-26 17:20:00,49.0,25.0,29.71,SE,135,9.0,11.0,41,0.00,,,0.00,TxWx,2013-03-26 21:20:00,
2013-03-26 17:25:00,49.0,25.0,29.71,South,180,5.0,8.0,41,0.00,,,0.00,TxWx,2013-03-26 21:25:00,
2013-03-26 17:30:00,49.0,26.0,29.71,ESE,112,6.0,7.0,42,0.00,,,0.00,TxWx,2013-03-26 21:30:00,
2013-03-26 17:36:00,50.0,26.0,29.71,East,90,4.0,5.0,41,0.00,,,0.00,TxWx,2013-03-26 21:36:00,
2013-03-26 17:41:00,49.0,25.0,29.72,SE,135,8.0,10.0,41,0.00,,,0.00,TxWx,2013-03-26 21:41:00,
2013-03-26 17:47:00,49.0,26.0,29.72,SE,135,6.0,6.0,42,0.00,,,0.00,TxWx,2013-03-26 21:47:00,
2013-03-26 17:52:00,49.0,26.0,29.72,East,90,7.0,7.0,42,0.00,,,0.00,TxWx,2013-03-26 21:52:00,
2013-03-26 17:57:00,49.0,26.0,29.72,SE,135,13.0,14.0,42,0.00,,,0.00,TxWx,2013-03-26 21:57:00,
2013-03-26 18:02:00,49.0,26.0,29.72,SE,135,11.0,13.0,42,0.00,,,0.00,TxWx,2013-03-26 22:02:00,
2013-03-26 18:07:00,49.0,25.0,29.72,ENE,67,8.0,10.0,41,0.00,,,0.00,TxWx,2013-03-26 22:07:00,
2013-03-26 18:12:00,49.0,26.0,29.72,ESE,112,7.0,7.0,42,0.00,,,0.00,TxWx,2013-03-26 22:12:00,
2013-03-26 18:18:00,49.0,26.0,29.72,ESE,112,7.0,10.0,42,0.00,,,0.00,TxWx,2013-03-26 22:18:00,
2013-03-26 18:23:00,49.0,26.0,29.72,ESE,112,6.0,6.0,42,0.00,,,0.00,TxWx,2013-03-26 22:23:00,
2013-03-26 18:29:00,49.0,26.0,29.72,SE,135,8.0,10.0,42,0.00,,,0.00,TxWx,2013-03-26 22:29:00,
2013-03-26 18:34:00,49.0,26.0,29.72,East,90,2.0,3.0,42,0.00,,,0.00,TxWx,2013-03-26 22:34:00,
2013-03-26 18:39:00,49.0,26.0,29.72,SE,135,6.0,7.0,43,0.00,,,0.00,TxWx,2013-03-26 22:39:00,
2013-03-26 18:44:00,48.0,26.0,29.73,SSE,157,4.0,4.0,43,0.00,,,0.00,TxWx,2013-03-26 22:44:00,
2013-03-26 18:49:00,48.0,26.0,29.73,SSE,157,3.0,3.0,43,0.00,,,0.00,TxWx,2013-03-26 22:49:00,
2013-03-26 18:54:00,48.0,26.0,29.73,SE,135,2.0,3.0,43,0.00,,,0.00,TxWx,2013-03-26 22:54:00,
2013-03-26 18:59:00,48.0,26.0,29.73,South,180,2.0,2.0,44,0.00,,,0.00,TxWx,2013-03-26 22:59:00,
2013-03-26 19:04:00,48.0,26.0,29.73,South,180,3.0,3.0,44,0.00,,,0.00,TxWx,2013-03-26 23:04:00,
2013-03-26 19:09:00,47.0,25.0,29.73,SE,135,1.0,1.0,45,0.00,,,0.00,TxWx,2013-03-26 23:09:00,
2013-03-26 19:15:00,47.0,26.0,29.73,SSE,157,1.0,1.0,45,0.00,,,0.00,TxWx,2013-03-26 23:15:00,
2013-03-26 19:20:00,47.0,26.0,29.74,SSE,157,3.0,3.0,45,0.00,,,0.00,TxWx,2013-03-26 23:20:00,
2013-03-26 19:25:00,47.0,26.0,29.74,SE,135,1.0,2.0,45,0.00,,,0.00,TxWx,2013-03-26 23:25:00,
2013-03-26 19:30:00,46.0,25.0,29.74,SE,135,2.0,3.0,46,0.00,,,0.00,TxWx,2013-03-26 23:30:00,
2013-03-26 19:36:00,46.0,25.0,29.74,SSE,157,2.0,2.0,46,0.00,,,0.00,TxWx,2013-03-26 23:36:00,
2013-03-26 19:41:00,46.0,26.0,29.74,SSE,157,1.0,2.0,47,0.00,,,0.00,TxWx,2013-03-26 23:41:00,
2013-03-26 19:47:00,45.0,25.0,29.74,SSE,157,1.0,1.0,47,0.00,,,0.00,TxWx,2013-03-26 23:47:00,
2013-03-26 19:52:00,45.0,25.0,29.75,ESE,112,1.0,1.0,48,0.00,,,0.00,TxWx,2013-03-26 23:52:00,
2013-03-26 19:57:00,45.0,25.0,29.75,NE,45,1.0,1.0,48,0.00,,,0.00,TxWx,2013-03-26 23:57:00,
2013-03-26 20:02:00,44.0,25.0,29.75,North,0,2.0,2.0,49,0.00,,,0.00,TxWx,2013-03-27 00:02:00,
2013-03-26 20:07:00,43.0,24.0,29.75,NNE,22,3.0,3.0,50,0.00,,,0.00,TxWx,2013-03-27 00:07:00,
2013-03-26 20:13:00,42.0,24.0,29.75,NNE,22,3.0,3.0,51,0.00,,,0.00,TxWx,2013-03-27 00:13:00,
2013-03-26 20:18:00,42.0,24.0,29.75,NE,45,3.0,4.0,52,0.00,,,0.00,TxWx,2013-03-27 00:18:00,
2013-03-26 20:23:00,44.0,25.0,29.75,East,90,3.0,3.0,48,0.00,,,0.00,TxWx,2013-03-27 00:23:00,
2013-03-26 20:29:00,44.0,24.0,29.76,NE,45,1.0,1.0,47,0.00,,,0.00,TxWx,2013-03-27 00:29:00,
2013-03-26 20:34:00,43.0,24.0,29.75,NNE,22,2.0,3.0,48,0.00,,,0.00,TxWx,2013-03-27 00:34:00,
2013-03-26 20:39:00,43.0,24.0,29.76,North,0,1.0,2.0,49,0.00,,,0.00,TxWx,2013-03-27 00:39:00,
2013-03-26 20:44:00,42.0,24.0,29.76,North,0,1.0,2.0,50,0.00,,,0.00,TxWx,2013-03-27 00:44:00,
2013-03-26 20:49:00,42.0,24.0,29.76,North,0,0.0,0.0,51,0.00,,,0.00,TxWx,2013-03-27 00:49:00,
2013-03-26 20:55:00,41.0,23.0,29.76,NNW,337,1.0,1.0,51,0.00,,,0.00,TxWx,2013-03-27 00:55:00,
2013-03-26 21:00:00,41.0,24.0,29.76,North,0,1.0,1.0,52,0.00,,,0.00,TxWx,2013-03-27 01:00:00,
2013-03-26 21:05:00,40.0,23.0,29.76,NE,45,2.0,3.0,54,0.00,,,0.00,TxWx,2013-03-27 01:05:00,
2013-03-26 21:11:00,40.0,24.0,29.77,South,180,4.0,4.0,55,0.00,,,0.00,TxWx,2013-03-27 01:11:00,
2013-03-26 21:16:00,39.0,24.0,29.77,ENE,67,0.0,1.0,57,0.00,,,0.00,TxWx,2013-03-27 01:16:00,
2013-03-26 21:22:00,40.0,25.0,29.77,NNE,22,0.0,1.0,57,0.00,,,0.00,TxWx,2013-03-27 01:22:00,
2013-03-26 21:27:00,39.0,24.0,29.77,NNE,22,1.0,1.0,58,0.00,,,0.00,TxWx,2013-03-27 01:27:00,
2013-03-26 21:32:00,39.0,24.0,29.77,ENE,67,1.0,1.0,57,0.00,,,0.00,TxWx,2013-03-27 01:32:00,
2013-03-26 21:38:00,40.0,25.0,29.77,East,90,1.0,2.0,56,0.00,,,0.00,TxWx,2013-03-27 01:38:00,
2013-03-26 21:43:00,41.0,24.0,29.78,East,90,3.0,3.0,54,0.00,,,0.00,TxWx,2013-03-27 01:43:00,
2013-03-26 21:48:00,43.0,24.0,29.78,SE,135,3.0,3.0,50,0.00,,,0.00,TxWx,2013-03-27 01:48:00,
2013-03-26 21:53:00,44.0,24.0,29.78,SE,135,3.0,3.0,48,0.00,,,0.00,TxWx,2013-03-27 01:53:00,
2013-03-26 21:59:00,44.0,24.0,29.78,ESE,112,3.0,4.0,47,0.00,,,0.00,TxWx,2013-03-27 01:59:00,
2013-03-26 22:04:00,44.0,24.0,29.79,ESE,112,2.0,2.0,47,0.00,,,0.00,TxWx,2013-03-27 02:04:00,
2013-03-26 22:09:00,43.0,23.0,29.79,South,180,3.0,3.0,47,0.00,,,0.00,TxWx,2013-03-27 02:09:00,
2013-03-26 22:15:00,43.0,23.0,29.78,SSE,157,0.0,1.0,48,0.00,,,0.00,TxWx,2013-03-27 02:15:00,
2013-03-26 22:20:00,43.0,23.0,29.79,WSW,247,0.0,1.0,48,0.00,,,0.00,TxWx,2013-03-27 02:20:00,
2013-03-26 22:25:00,42.0,23.0,29.79,SW,225,1.0,1.0,48,0.00,,,0.00,TxWx,2013-03-27 02:25:00,
2013-03-26 22:30:00,42.0,23.0,29.79,NE,45,1.0,1.0,49,0.00,,,0.00,TxWx,2013-03-27 02:30:00,
2013-03-26 22:36:00,42.0,23.0,29.79,SW,225,3.0,3.0,50,0.00,,,0.00,TxWx,2013-03-27 02:36:00,
2013-03-26 22:42:00,42.0,23.0,29.79,SSE,157,3.0,3.0,49,0.00,,,0.00,TxWx,2013-03-27 02:42:00,
2013-03-26 22:47:00,42.0,23.0,29.79,SSE,157,2.0,2.0,48,0.00,,,0.00,TxWx,2013-03-27 02:47:00,
2013-03-26 22:52:00,43.0,23.0,29.79,South,180,1.0,1.0,47,0.00,,,0.00,TxWx,2013-03-27 02:52:00,
2013-03-26 22:57:00,43.0,23.0,29.79,South,180,2.0,2.0,47,0.00,,,0.00,TxWx,2013-03-27 02:57:00,
2013-03-26 23:03:00,43.0,23.0,29.79,SSW,202,3.0,4.0,47,0.00,,,0.00,TxWx,2013-03-27 03:03:00,
2013-03-26 23:08:00,43.0,23.0,29.79,South,180,1.0,1.0,47,0.00,,,0.00,TxWx,2013-03-27 03:08:00,
2013-03-26 23:13:00,43.0,23.0,29.79,South,180,3.0,3.0,46,0.00,,,0.00,TxWx,2013-03-27 03:13:00,
2013-03-26 23:18:00,43.0,22.0,29.79,SSE,157,3.0,4.0,46,0.00,,,0.00,TxWx,2013-03-27 03:18:00,
2013-03-26 23:23:00,43.0,22.0,29.79,SSW,202,4.0,4.0,46,0.00,,,0.00,TxWx,2013-03-27 03:23:00,
2013-03-26 23:29:00,43.0,22.0,29.79,SSE,157,3.0,5.0,45,0.00,,,0.00,TxWx,2013-03-27 03:29:00,
2013-03-26 23:34:00,43.0,22.0,29.79,WSW,247,3.0,3.0,45,0.00,,,0.00,TxWx,2013-03-27 03:34:00,
2013-03-26 23:39:00,42.0,22.0,29.79,SE,135,1.0,2.0,46,0.00,,,0.00,TxWx,2013-03-27 03:39:00,
2013-03-26 23:44:00,42.0,22.0,29.79,SSW,202,3.0,4.0,47,0.00,,,0.00,TxWx,2013-03-27 03:44:00,
2013-03-26 23:49:00,41.0,22.0,29.79,SSE,157,2.0,2.0,49,0.00,,,0.00,TxWx,2013-03-27 03:49:00,
2013-03-26 23:55:00,40.0,22.0,29.79,SE,135,1.0,1.0,50,0.00,,,0.00,TxWx,2013-03-27 03:55:00,